createdAt,value
2018-03-22T00:01:13.747Z,4.50
2018-03-22T00:03:39.929Z,4.50
2018-03-22T00:06:06.155Z,4.50
2018-03-22T00:08:32.443Z,4.50
2018-03-22T00:10:58.728Z,4.50
2018-03-22T00:13:25.451Z,4.50
2018-03-22T00:15:52.455Z,4.50
2018-03-22T00:18:19.435Z,4.50
2018-03-22T00:20:45.728Z,4.50
2018-03-22T00:23:12.658Z,4.50
2018-03-22T00:25:38.895Z,4.50
2018-03-22T00:28:05.970Z,4.50
2018-03-22T00:30:32.290Z,4.50
2018-03-22T00:33:00.293Z,4.50
2018-03-22T00:35:26.504Z,4.50
2018-03-22T00:37:52.839Z,4.50
2018-03-22T00:40:19.030Z,4.50
2018-03-22T00:42:45.217Z,4.60
2018-03-22T00:45:11.495Z,4.60
2018-03-22T00:47:38.435Z,4.50
2018-03-22T00:50:04.744Z,4.50
2018-03-22T00:52:30.979Z,4.50
2018-03-22T00:54:57.195Z,4.60
2018-03-22T00:57:23.422Z,4.50
2018-03-22T00:59:49.650Z,4.60
2018-03-22T01:02:16.594Z,4.60
2018-03-22T01:04:42.820Z,4.60
2018-03-22T01:07:09.789Z,4.60
2018-03-22T01:09:36.265Z,4.60
2018-03-22T01:12:02.689Z,4.60
2018-03-22T01:14:28.883Z,4.60
2018-03-22T01:16:55.878Z,4.70
2018-03-22T01:19:22.133Z,4.60
2018-03-22T01:21:48.328Z,4.70
2018-03-22T01:24:14.530Z,4.70
2018-03-22T01:26:40.770Z,4.70
2018-03-22T01:29:07.940Z,4.70
2018-03-22T01:31:34.169Z,4.70
2018-03-22T01:34:00.393Z,4.70
2018-03-22T01:36:26.594Z,4.70
2018-03-22T01:38:52.794Z,4.70
2018-03-22T01:41:19.771Z,4.80
2018-03-22T01:43:46.071Z,4.80
2018-03-22T01:46:12.395Z,4.80
2018-03-22T01:48:38.666Z,4.80
2018-03-22T01:51:04.866Z,4.80
2018-03-22T01:53:31.114Z,4.90
2018-03-22T01:55:57.303Z,4.90
2018-03-22T01:58:23.546Z,4.90
2018-03-22T02:00:50.507Z,4.90
2018-03-22T02:03:16.754Z,4.90
2018-03-22T02:05:43.179Z,4.90
2018-03-22T02:08:09.415Z,4.90
2018-03-22T02:10:35.626Z,4.90
2018-03-22T02:13:01.834Z,4.90
2018-03-22T02:15:28.754Z,4.90
2018-03-22T02:17:54.967Z,4.90
2018-03-22T02:20:21.249Z,4.90
2018-03-22T02:22:47.947Z,4.90
2018-03-22T02:25:21.542Z,4.90
2018-03-22T02:27:48.760Z,4.90
2018-03-22T02:30:16.122Z,4.90
2018-03-22T02:32:42.373Z,4.80
2018-03-22T02:35:08.618Z,4.90
2018-03-22T02:37:34.851Z,4.90
2018-03-22T02:40:01.094Z,4.80
2018-03-22T02:42:27.367Z,4.80
2018-03-22T02:44:53.642Z,4.80
2018-03-22T02:47:19.881Z,4.80
2018-03-22T02:49:46.139Z,4.80
2018-03-22T02:52:12.378Z,4.80
2018-03-22T02:54:38.623Z,4.80
2018-03-22T02:57:04.839Z,4.80
2018-03-22T02:59:31.848Z,4.80
2018-03-22T03:01:58.175Z,4.80
2018-03-22T03:04:25.482Z,4.80
2018-03-22T03:06:52.712Z,4.80
2018-03-22T03:09:19.263Z,4.80
2018-03-22T03:11:45.532Z,4.80
2018-03-22T03:14:11.739Z,4.80
2018-03-22T03:16:37.933Z,4.80
2018-03-22T03:19:05.001Z,4.80
2018-03-22T03:21:31.241Z,4.80
2018-03-22T03:23:57.494Z,4.80
2018-03-22T03:26:23.921Z,4.80
2018-03-22T03:28:50.838Z,4.80
2018-03-22T03:31:17.133Z,4.80
2018-03-22T03:33:43.497Z,4.80
2018-03-22T03:36:10.563Z,4.80
2018-03-22T03:38:36.806Z,4.80
2018-03-22T03:41:03.058Z,4.80
2018-03-22T03:43:29.328Z,4.80
2018-03-22T03:45:55.550Z,4.80
2018-03-22T03:48:21.794Z,4.80
2018-03-22T03:50:49.243Z,4.80
2018-03-22T03:53:15.541Z,4.80
2018-03-22T03:55:41.745Z,4.90
2018-03-22T03:58:09.151Z,4.80
2018-03-22T04:00:35.620Z,4.80
2018-03-22T04:03:02.135Z,4.90
2018-03-22T04:05:28.348Z,4.80
2018-03-22T04:07:55.060Z,4.80
2018-03-22T04:10:21.337Z,4.80
2018-03-22T04:12:47.535Z,4.80
2018-03-22T04:15:20.225Z,4.80
2018-03-22T04:17:52.733Z,4.80
2018-03-22T04:20:25.077Z,4.80
2018-03-22T04:22:57.373Z,4.70
2018-03-22T04:25:30.168Z,4.70
2018-03-22T04:28:03.729Z,4.70
2018-03-22T04:30:35.991Z,4.70
2018-03-22T04:33:08.310Z,4.70
2018-03-22T04:35:40.734Z,4.70
2018-03-22T04:38:07.165Z,4.70
2018-03-22T04:40:33.735Z,4.70
2018-03-22T04:43:00.710Z,4.80
2018-03-22T04:45:26.941Z,4.80
2018-03-22T04:47:53.359Z,4.80
2018-03-22T04:50:19.600Z,4.80
2018-03-22T04:52:45.826Z,4.80
2018-03-22T04:55:12.112Z,4.80
2018-03-22T04:57:38.290Z,4.80
2018-03-22T05:00:04.608Z,4.80
2018-03-22T05:02:30.786Z,4.80
2018-03-22T05:04:57.023Z,4.80
2018-03-22T05:07:23.435Z,4.80
2018-03-22T05:09:49.711Z,4.80
2018-03-22T05:12:15.943Z,4.80
2018-03-22T05:14:42.171Z,4.80
2018-03-22T05:17:08.378Z,4.70
2018-03-22T05:19:34.574Z,4.70
2018-03-22T05:22:00.799Z,4.70
2018-03-22T05:24:27.003Z,4.70
2018-03-22T05:26:53.204Z,4.80
2018-03-22T05:29:20.370Z,4.70
2018-03-22T05:31:46.580Z,4.70
2018-03-22T05:34:13.271Z,4.80
2018-03-22T05:36:39.477Z,4.80
2018-03-22T05:39:06.454Z,4.70
2018-03-22T05:41:34.169Z,4.70
2018-03-22T05:44:00.386Z,4.70
2018-03-22T05:46:27.418Z,4.70
2018-03-22T05:48:54.304Z,4.70
2018-03-22T05:51:21.321Z,4.70
2018-03-22T05:53:47.576Z,4.70
2018-03-22T05:56:13.832Z,4.70
2018-03-22T05:58:40.779Z,4.60
2018-03-22T06:01:06.993Z,4.60
2018-03-22T06:03:33.410Z,4.70
2018-03-22T06:05:59.810Z,4.70
2018-03-22T06:08:26.973Z,4.60
2018-03-22T06:10:53.239Z,4.60
2018-03-22T06:13:20.198Z,4.50
2018-03-22T06:15:52.433Z,4.50
2018-03-22T06:18:20.053Z,4.40
2018-03-22T06:20:46.280Z,4.40
2018-03-22T06:23:13.946Z,4.30
2018-03-22T06:25:40.283Z,4.20
2018-03-22T06:28:06.458Z,4.20
2018-03-22T06:30:33.896Z,4.10
2018-03-22T06:33:01.033Z,4.10
2018-03-22T06:35:27.286Z,4.10
2018-03-22T06:37:53.664Z,4.10
2018-03-22T06:40:19.957Z,4.20
2018-03-22T06:42:46.953Z,4.10
2018-03-22T06:45:14.678Z,4.00
2018-03-22T06:47:42.053Z,4.00
2018-03-22T06:50:09.404Z,4.00
2018-03-22T06:52:36.210Z,4.00
2018-03-22T06:55:04.517Z,4.00
2018-03-22T06:57:31.767Z,4.00
2018-03-22T06:59:58.916Z,4.00
2018-03-22T07:02:26.463Z,4.00
2018-03-22T07:04:53.422Z,4.10
2018-03-22T07:07:20.349Z,4.10
2018-03-22T07:09:47.466Z,4.10
2018-03-22T07:12:13.778Z,4.10
2018-03-22T07:14:40.201Z,4.10
2018-03-22T07:17:06.471Z,4.10
2018-03-22T07:19:33.428Z,4.10
2018-03-22T07:21:59.757Z,4.10
2018-03-22T07:24:26.034Z,4.10
2018-03-22T07:26:52.389Z,4.10
2018-03-22T07:29:18.814Z,4.10
2018-03-22T07:31:45.803Z,4.20
2018-03-22T07:34:12.313Z,4.20
2018-03-22T07:36:38.675Z,4.10
2018-03-22T07:39:05.559Z,4.10
2018-03-22T07:41:31.794Z,4.10
2018-03-22T07:44:04.212Z,4.10
2018-03-22T07:46:30.481Z,4.00
2018-03-22T07:48:56.668Z,4.00
2018-03-22T07:51:23.007Z,4.10
2018-03-22T07:53:49.943Z,4.10
2018-03-22T07:56:16.919Z,4.10
2018-03-22T07:58:44.398Z,4.10
2018-03-22T08:01:11.560Z,4.10
2018-03-22T08:03:38.734Z,4.20
2018-03-22T08:06:05.170Z,4.20
2018-03-22T08:08:31.418Z,4.20
2018-03-22T08:10:57.649Z,4.30
2018-03-22T08:13:24.696Z,4.30
2018-03-22T08:15:51.072Z,4.30
2018-03-22T08:18:17.400Z,4.30
2018-03-22T08:20:44.339Z,4.40
2018-03-22T08:23:11.617Z,4.40
2018-03-22T08:25:38.596Z,4.40
2018-03-22T08:28:06.196Z,4.50
2018-03-22T08:30:33.251Z,4.50
2018-03-22T08:33:00.259Z,4.50
2018-03-22T08:35:26.520Z,4.50
2018-03-22T08:37:53.573Z,4.50
2018-03-22T08:40:19.913Z,4.50
2018-03-22T08:42:46.267Z,4.60
2018-03-22T08:45:12.798Z,4.60
2018-03-22T08:47:39.779Z,4.60
2018-03-22T08:50:05.979Z,4.60
2018-03-22T08:52:32.211Z,4.60
2018-03-22T08:54:58.494Z,4.50
2018-03-22T08:57:24.737Z,4.50
2018-03-22T08:59:51.895Z,4.60
2018-03-22T09:02:18.113Z,4.60
2018-03-22T09:04:45.185Z,4.70
2018-03-22T09:07:11.462Z,4.60
2018-03-22T09:09:37.754Z,4.70
2018-03-22T09:12:04.735Z,4.60
2018-03-22T09:14:30.942Z,4.60
2018-03-22T09:16:57.318Z,4.60
2018-03-22T09:19:23.844Z,4.60
2018-03-22T09:21:50.073Z,4.60
2018-03-22T09:24:16.498Z,4.60
2018-03-22T09:26:48.989Z,4.70
2018-03-22T09:29:15.198Z,4.70
2018-03-22T09:31:41.393Z,4.70
2018-03-22T09:34:08.154Z,4.70
2018-03-22T09:36:35.996Z,4.80
2018-03-22T09:39:02.681Z,4.80
2018-03-22T09:41:29.034Z,4.80
2018-03-22T09:43:56.427Z,4.90
2018-03-22T09:46:22.790Z,4.90
2018-03-22T09:48:49.100Z,5.00
2018-03-22T09:51:16.229Z,5.10
2018-03-22T09:53:42.461Z,5.10
2018-03-22T09:56:09.935Z,5.10
2018-03-22T09:58:37.939Z,5.10
2018-03-22T10:01:04.222Z,5.10
2018-03-22T10:03:30.467Z,5.20
2018-03-22T10:05:56.874Z,5.20
2018-03-22T10:08:23.089Z,5.30
2018-03-22T10:10:50.252Z,5.30
2018-03-22T10:13:16.482Z,5.30
2018-03-22T10:15:42.866Z,5.40
2018-03-22T10:18:09.216Z,5.40
2018-03-22T10:20:35.483Z,5.40
2018-03-22T10:23:01.932Z,5.50
2018-03-22T10:25:28.314Z,5.50
2018-03-22T10:27:55.337Z,5.60
2018-03-22T10:30:22.587Z,5.60
2018-03-22T10:32:49.511Z,5.70
2018-03-22T10:35:15.710Z,5.70
2018-03-22T10:37:42.991Z,5.80
2018-03-22T10:40:09.234Z,5.80
2018-03-22T10:42:35.481Z,5.90
2018-03-22T10:45:02.907Z,5.90
2018-03-22T10:47:30.184Z,5.90
2018-03-22T10:49:56.452Z,5.90
2018-03-22T10:52:22.666Z,5.90
2018-03-22T10:54:49.661Z,6.00
2018-03-22T10:57:15.876Z,6.00
2018-03-22T10:59:42.397Z,6.00
2018-03-22T11:02:14.899Z,6.10
2018-03-22T11:04:48.954Z,6.20
2018-03-22T11:07:15.938Z,6.40
2018-03-22T11:09:42.234Z,6.30
2018-03-22T11:12:08.721Z,6.60
2018-03-22T11:14:34.942Z,6.70
2018-03-22T11:17:01.143Z,6.90
2018-03-22T11:19:27.381Z,7.00
2018-03-22T11:21:53.608Z,7.00
2018-03-22T11:24:20.065Z,6.90
2018-03-22T11:26:46.551Z,6.90
2018-03-22T11:29:12.966Z,7.00
2018-03-22T11:31:39.562Z,7.00
2018-03-22T11:34:10.043Z,7.00
2018-03-22T11:36:37.131Z,7.20
2018-03-22T11:39:03.440Z,7.10
2018-03-22T11:41:29.673Z,7.30
2018-03-22T11:43:56.012Z,7.40
2018-03-22T11:46:22.333Z,7.40
2018-03-22T11:48:48.766Z,7.40
2018-03-22T11:51:14.997Z,7.30
2018-03-22T11:53:41.204Z,7.20
2018-03-22T11:56:07.696Z,7.30
2018-03-22T11:58:33.995Z,7.30
2018-03-22T12:01:00.310Z,7.40
2018-03-22T12:03:26.956Z,7.40
2018-03-22T12:05:53.243Z,7.50
2018-03-22T12:08:19.465Z,7.60
2018-03-22T12:10:45.698Z,7.70
2018-03-22T12:13:12.632Z,7.60
2018-03-22T12:15:39.570Z,7.70
2018-03-22T12:18:06.577Z,7.70
2018-03-22T12:20:32.866Z,7.70
2018-03-22T12:22:59.237Z,7.70
2018-03-22T12:25:25.591Z,7.70
2018-03-22T12:27:51.799Z,7.80
2018-03-22T12:30:18.007Z,7.80
2018-03-22T12:32:44.242Z,7.80
2018-03-22T12:35:11.354Z,7.90
2018-03-22T12:37:38.349Z,7.80
2018-03-22T12:40:04.592Z,7.80
2018-03-22T12:42:30.942Z,7.80
2018-03-22T12:44:57.330Z,7.80
2018-03-22T12:47:23.529Z,8.00
2018-03-22T12:49:50.014Z,8.00
2018-03-22T12:52:16.216Z,8.10
2018-03-22T12:54:42.396Z,8.20
2018-03-22T12:57:09.516Z,8.20
2018-03-22T12:59:35.846Z,8.20
2018-03-22T13:02:02.163Z,8.30
2018-03-22T13:04:28.297Z,8.40
2018-03-22T13:06:54.544Z,8.50
2018-03-22T13:09:20.762Z,8.60
2018-03-22T13:11:46.986Z,8.90
2018-03-22T13:14:13.630Z,9.20
2018-03-22T13:16:39.809Z,9.40
2018-03-22T13:19:06.256Z,9.50
2018-03-22T13:21:32.616Z,9.70
2018-03-22T13:23:59.836Z,10.20
2018-03-22T13:26:26.019Z,10.20
2018-03-22T13:28:52.953Z,10.40
2018-03-22T13:31:19.889Z,10.10
2018-03-22T13:33:46.115Z,10.10
2018-03-22T13:36:15.699Z,9.50
2018-03-22T13:38:41.908Z,9.50
2018-03-22T13:41:09.523Z,9.10
2018-03-22T13:43:35.931Z,9.10
2018-03-22T13:46:04.216Z,9.00
2018-03-22T13:48:30.442Z,9.00
2018-03-22T13:50:56.657Z,8.90
2018-03-22T13:53:22.922Z,8.90
2018-03-22T13:55:49.135Z,8.90
2018-03-22T13:58:15.398Z,9.00
2018-03-22T14:00:41.874Z,9.10
2018-03-22T14:03:08.806Z,9.10
2018-03-22T14:05:35.800Z,9.00
2018-03-22T14:08:02.038Z,9.00
2018-03-22T14:10:29.192Z,9.00
2018-03-22T14:12:55.435Z,9.00
2018-03-22T14:15:21.841Z,9.00
2018-03-22T14:17:48.109Z,8.90
2018-03-22T14:20:14.374Z,9.00
2018-03-22T14:22:41.826Z,8.90
2018-03-22T14:25:08.304Z,8.90
2018-03-22T14:27:34.506Z,8.90
2018-03-22T14:30:01.484Z,8.90
2018-03-22T14:32:27.793Z,8.90
2018-03-22T14:34:54.727Z,8.80
2018-03-22T14:37:21.735Z,8.80
2018-03-22T14:39:48.610Z,8.80
2018-03-22T14:42:15.021Z,8.80
2018-03-22T14:44:41.987Z,8.70
2018-03-22T14:47:09.169Z,8.70
2018-03-22T14:49:35.371Z,8.70
2018-03-22T14:52:01.577Z,8.80
2018-03-22T14:54:27.952Z,9.00
2018-03-22T14:56:54.386Z,9.10
2018-03-22T14:59:20.766Z,9.40
2018-03-22T15:01:48.549Z,9.50
2018-03-22T15:04:14.807Z,9.50
2018-03-22T15:06:41.073Z,9.60
2018-03-22T15:09:07.754Z,9.70
2018-03-22T15:11:34.690Z,9.70
2018-03-22T15:14:01.873Z,9.70
2018-03-22T15:16:28.102Z,9.70
2018-03-22T15:18:54.337Z,9.70
2018-03-22T15:21:20.543Z,9.60
2018-03-22T15:23:46.822Z,9.60
2018-03-22T15:26:13.253Z,9.50
2018-03-22T15:28:40.262Z,9.60
2018-03-22T15:31:06.461Z,9.50
2018-03-22T15:33:33.510Z,9.60
2018-03-22T15:36:00.674Z,9.60
2018-03-22T15:38:28.064Z,9.50
2018-03-22T15:40:55.159Z,9.50
2018-03-22T15:43:22.383Z,9.50
2018-03-22T15:45:48.597Z,9.50
2018-03-22T15:48:14.843Z,9.50
2018-03-22T15:50:41.155Z,9.60
2018-03-22T15:53:07.474Z,9.60
2018-03-22T15:55:33.682Z,9.70
2018-03-22T15:57:59.943Z,9.80
2018-03-22T16:00:26.170Z,9.80
2018-03-22T16:02:52.443Z,9.90
2018-03-22T16:05:19.470Z,9.90
2018-03-22T16:07:45.685Z,9.80
2018-03-22T16:10:11.934Z,9.80
2018-03-22T16:12:38.966Z,9.70
2018-03-22T16:15:05.257Z,9.70
2018-03-22T16:17:31.538Z,9.70
2018-03-22T16:19:57.850Z,9.70
2018-03-22T16:22:24.817Z,9.60
2018-03-22T16:24:51.778Z,9.50
2018-03-22T16:27:18.033Z,9.50
2018-03-22T16:29:44.305Z,9.50
2018-03-22T16:32:11.301Z,9.30
2018-03-22T16:34:37.492Z,9.30
2018-03-22T16:37:04.486Z,9.30
2018-03-22T16:39:30.772Z,9.30
2018-03-22T16:41:57.142Z,9.40
2018-03-22T16:44:23.398Z,9.40
2018-03-22T16:46:49.603Z,9.40
2018-03-22T16:49:15.826Z,9.40
2018-03-22T16:51:42.049Z,9.30
2018-03-22T16:54:08.368Z,9.30
2018-03-22T16:56:34.568Z,9.20
2018-03-22T16:59:00.828Z,9.20
2018-03-22T17:01:27.042Z,9.20
2018-03-22T17:03:53.302Z,9.10
2018-03-22T17:06:19.514Z,9.10
2018-03-22T17:08:45.904Z,9.20
2018-03-22T17:11:12.220Z,9.20
2018-03-22T17:13:38.515Z,9.20
2018-03-22T17:16:04.719Z,9.20
2018-03-22T17:18:30.916Z,9.20
2018-03-22T17:20:57.186Z,9.20
2018-03-22T17:23:23.421Z,9.20
2018-03-22T17:25:50.493Z,9.20
2018-03-22T17:28:16.736Z,9.20
2018-03-22T17:30:43.132Z,9.10
2018-03-22T17:33:09.365Z,9.10
2018-03-22T17:35:35.581Z,9.10
2018-03-22T17:38:01.843Z,9.10
2018-03-22T17:40:28.034Z,9.10
2018-03-22T17:42:54.933Z,9.00
2018-03-22T17:45:21.252Z,9.00
2018-03-22T17:47:47.673Z,9.00
2018-03-22T17:50:13.868Z,9.00
2018-03-22T17:52:40.109Z,9.00
2018-03-22T17:55:06.330Z,9.00
2018-03-22T17:57:33.299Z,8.90
2018-03-22T18:00:00.817Z,8.90
2018-03-22T18:02:27.030Z,8.90
2018-03-22T18:04:53.334Z,8.90
2018-03-22T18:07:19.847Z,8.90
2018-03-22T18:09:46.061Z,8.80
2018-03-22T18:12:12.479Z,8.80
2018-03-22T18:14:38.718Z,8.80
2018-03-22T18:17:04.927Z,8.80
2018-03-22T18:19:31.172Z,8.80
2018-03-22T18:21:57.503Z,8.80
2018-03-22T18:24:23.861Z,8.80
2018-03-22T18:26:50.367Z,8.80
2018-03-22T18:29:16.591Z,8.80
2018-03-22T18:31:42.808Z,8.80
2018-03-22T18:34:09.035Z,8.80
2018-03-22T18:36:35.235Z,8.80
2018-03-22T18:39:02.342Z,8.70
2018-03-22T18:41:28.600Z,8.70
2018-03-22T18:43:54.926Z,8.70
2018-03-22T18:46:21.246Z,8.70
2018-03-22T18:48:47.603Z,8.70
2018-03-22T18:51:13.892Z,8.60
2018-03-22T18:53:40.182Z,8.60
2018-03-22T18:56:06.422Z,8.60
2018-03-22T18:58:32.655Z,8.60
2018-03-22T19:00:58.941Z,8.60
2018-03-22T19:03:25.214Z,8.50
2018-03-22T19:05:51.465Z,8.60
2018-03-22T19:08:17.674Z,8.50
2018-03-22T19:10:45.509Z,8.50
2018-03-22T19:13:11.731Z,8.50
2018-03-22T19:15:38.109Z,8.50
2018-03-22T19:18:04.447Z,8.50
2018-03-22T19:20:31.506Z,8.50
2018-03-22T19:22:58.030Z,8.40
2018-03-22T19:25:24.993Z,8.30
2018-03-22T19:27:51.337Z,8.30
2018-03-22T19:30:17.718Z,8.30
2018-03-22T19:32:44.090Z,8.30
2018-03-22T19:35:10.718Z,8.30
2018-03-22T19:37:36.984Z,8.40
2018-03-22T19:40:03.337Z,8.40
2018-03-22T19:42:29.676Z,8.40
2018-03-22T19:44:56.147Z,8.40
2018-03-22T19:47:22.411Z,8.40
2018-03-22T19:49:49.046Z,8.40
2018-03-22T19:52:15.306Z,8.40
2018-03-22T19:54:42.264Z,8.30
2018-03-22T19:57:09.430Z,8.30
2018-03-22T19:59:36.487Z,8.30
2018-03-22T20:02:02.798Z,8.30
2018-03-22T20:04:29.393Z,8.30
2018-03-22T20:06:55.649Z,8.30
2018-03-22T20:09:21.888Z,8.20
2018-03-22T20:11:48.176Z,8.20
2018-03-22T20:14:14.678Z,8.20
2018-03-22T20:16:41.616Z,8.10
2018-03-22T20:19:09.189Z,8.20
2018-03-22T20:21:35.883Z,8.20
2018-03-22T20:24:02.223Z,8.20
2018-03-22T20:26:29.205Z,8.10
2018-03-22T20:28:55.574Z,8.10
2018-03-22T20:31:21.786Z,8.20
2018-03-22T20:33:48.426Z,8.20
2018-03-22T20:36:16.742Z,8.20
2018-03-22T20:38:43.084Z,8.20
2018-03-22T20:41:09.502Z,8.20
2018-03-22T20:43:36.202Z,8.20
2018-03-22T20:46:02.622Z,8.30
2018-03-22T20:48:28.959Z,8.30
2018-03-22T20:50:55.845Z,8.20
2018-03-22T20:53:22.944Z,8.20
2018-03-22T20:55:49.519Z,8.20
2018-03-22T20:58:16.654Z,8.20
2018-03-22T21:00:42.894Z,8.20
2018-03-22T21:03:09.540Z,8.20
2018-03-22T21:05:35.836Z,8.20
2018-03-22T21:08:02.286Z,8.20
2018-03-22T21:10:28.894Z,8.10
2018-03-22T21:12:55.371Z,8.10
2018-03-22T21:15:22.526Z,8.10
2018-03-22T21:17:50.968Z,8.10
2018-03-22T21:20:17.246Z,8.20
2018-03-22T21:22:44.319Z,8.10
2018-03-22T21:25:10.533Z,8.10
2018-03-22T21:27:37.565Z,8.00
2018-03-22T21:30:04.486Z,8.00
2018-03-22T21:32:32.753Z,8.00
2018-03-22T21:35:00.250Z,8.00
2018-03-22T21:37:27.371Z,8.00
2018-03-22T21:39:53.851Z,8.10
2018-03-22T21:42:20.115Z,8.00
2018-03-22T21:44:46.332Z,8.00
2018-03-22T21:47:24.962Z,8.00
2018-03-22T21:49:51.445Z,8.00
2018-03-22T21:52:30.205Z,8.00
2018-03-22T21:54:56.495Z,8.00
2018-03-22T21:57:22.904Z,8.00
2018-03-22T21:59:49.313Z,8.00
2018-03-22T22:02:15.561Z,8.00
2018-03-22T22:04:42.582Z,7.90
2018-03-22T22:07:09.153Z,7.90
2018-03-22T22:09:37.238Z,8.00
2018-03-22T22:12:04.560Z,8.00
2018-03-22T22:14:31.067Z,8.00
2018-03-22T22:16:58.533Z,8.00
2018-03-22T22:19:25.005Z,8.00
2018-03-22T22:21:51.314Z,8.00
2018-03-22T22:24:18.175Z,8.00
2018-03-22T22:26:45.141Z,8.00
2018-03-22T22:29:12.102Z,8.00
2018-03-22T22:31:38.549Z,8.00
2018-03-22T22:34:06.336Z,8.00
2018-03-22T22:36:32.729Z,8.00
2018-03-22T22:38:58.986Z,7.90
2018-03-22T22:41:25.645Z,8.00
2018-03-22T22:43:52.982Z,7.90
2018-03-22T22:46:19.211Z,7.90
2018-03-22T22:48:46.257Z,7.90
2018-03-22T22:51:12.526Z,7.90
2018-03-22T22:53:39.689Z,7.90
2018-03-22T22:56:06.167Z,7.90
2018-03-22T22:58:32.461Z,7.90
2018-03-22T23:00:58.896Z,7.90
2018-03-22T23:03:25.152Z,7.90
2018-03-22T23:05:51.387Z,7.90
2018-03-22T23:08:17.686Z,7.90
2018-03-22T23:10:43.957Z,7.90
2018-03-22T23:13:10.242Z,7.90
2018-03-22T23:15:36.512Z,7.80
2018-03-22T23:18:02.837Z,7.90
2018-03-22T23:20:29.088Z,7.80
2018-03-22T23:22:56.135Z,7.80
2018-03-22T23:25:23.179Z,7.80
2018-03-22T23:27:49.499Z,7.80
2018-03-22T23:30:15.953Z,7.80
2018-03-22T23:32:42.574Z,7.70
2018-03-22T23:35:09.939Z,7.70
2018-03-22T23:37:36.250Z,7.70
2018-03-22T23:40:03.276Z,7.70
2018-03-22T23:42:29.542Z,7.70
2018-03-22T23:44:55.770Z,7.70
2018-03-22T23:47:22.018Z,7.70
2018-03-22T23:49:48.324Z,7.70
2018-03-22T23:52:14.840Z,7.70
2018-03-22T23:54:41.866Z,7.70
2018-03-22T23:57:08.111Z,7.70
2018-03-22T23:59:34.345Z,7.70
